Time;durP1;ratioP1;P1;durP2;ratioP2;P2;SDS_P1;SDS_P2;PMS_P1;PMS_P2;Temp;Humidity;BMP_temperature;BMP_pressure;BME280_temperature;BME280_humidity;BME280_pressure;Samples;Min_cycle;Max_cycle;Signal;HPM_P1;HPM_P2
2021/05/26 00:01:13;;;;;;;3.20;1.20;;;16.70;64.90;;;;;;5013653;28;20018;-39
2021/05/26 00:03:39;;;;;;;4.43;1.00;;;16.70;64.90;;;;;;5013313;28;20608;-39
2021/05/26 00:06:05;;;;;;;2.38;0.82;;;16.70;64.90;;;;;;5013408;28;20489;-38
2021/05/26 00:08:33;;;;;;;2.22;1.05;;;16.70;65.00;;;;;;5013573;28;20386;-40
2021/05/26 00:11:00;;;;;;;3.00;0.60;;;17.00;65.10;;;;;;5013300;28;20495;-38
2021/05/26 00:13:26;;;;;;;2.35;0.77;;;16.50;64.90;;;;;;5013216;28;20030;-38
2021/05/26 00:15:53;;;;;;;1.70;0.57;;;16.70;65.00;;;;;;5013515;28;20025;-38
2021/05/26 00:18:20;;;;;;;3.00;0.70;;;16.60;64.90;;;;;;5013108;28;20080;-38
2021/05/26 00:20:47;;;;;;;3.08;0.90;;;16.60;64.90;;;;;;5013154;28;20420;-38
2021/05/26 00:23:13;;;;;;;3.00;0.80;;;16.60;65.00;;;;;;5013387;28;20018;-38
2021/05/26 00:25:39;;;;;;;1.60;0.52;;;16.60;65.00;;;;;;5013402;28;20018;-38
2021/05/26 00:28:05;;;;;;;1.10;0.75;;;16.50;65.00;;;;;;5013334;28;20030;-39
2021/05/26 00:30:32;;;;;;;2.75;0.93;;;16.70;65.10;;;;;;5013406;28;20025;-38
2021/05/26 00:32:58;;;;;;;1.50;0.80;;;16.60;65.00;;;;;;5013035;28;20059;-38
2021/05/26 00:35:24;;;;;;;3.13;1.00;;;16.70;65.10;;;;;;5013032;28;20049;-38
2021/05/26 00:37:50;;;;;;;3.55;1.25;;;16.40;65.00;;;;;;5013263;28;20068;-39
2021/05/26 00:40:17;;;;;;;5.35;1.00;;;16.40;65.00;;;;;;5013293;28;20022;-39
2021/05/26 00:42:43;;;;;;;2.65;0.90;;;17.30;65.50;;;;;;5012970;28;20022;-39
2021/05/26 00:45:10;;;;;;;2.80;0.80;;;16.60;65.10;;;;;;5012948;28;20033;-38
2021/05/26 00:47:47;;;;;;;3.47;1.00;;;16.60;65.10;;;;;;5012975;28;20025;-39
2021/05/26 00:50:22;;;;;;;2.42;1.02;;;16.60;65.00;;;;;;5013146;28;20030;-39
2021/05/26 00:52:49;;;;;;;3.42;0.80;;;16.60;65.00;;;;;;5011583;28;20501;-38
2021/05/26 00:55:17;;;;;;;2.90;0.73;;;16.70;65.20;;;;;;5012751;28;20029;-38
2021/05/26 00:57:43;;;;;;;2.53;0.90;;;16.60;65.10;;;;;;5012970;28;20044;-38
2021/05/26 01:00:11;;;;;;;3.47;0.93;;;16.60;65.10;;;;;;5012797;28;20014;-38
2021/05/26 01:02:38;;;;;;;3.38;1.17;;;16.60;65.10;;;;;;5012723;28;20134;-39
2021/05/26 01:05:05;;;;;;;2.67;0.75;;;16.60;65.10;;;;;;5012755;28;20049;-38
2021/05/26 01:07:31;;;;;;;1.70;0.70;;;16.60;65.10;;;;;;5015986;28;20155;-38
2021/05/26 01:09:57;;;;;;;1.92;0.93;;;16.60;65.10;;;;;;5016769;28;20101;-38
2021/05/26 01:12:23;;;;;;;1.88;0.90;;;16.60;65.10;;;;;;5016739;28;20022;-38
2021/05/26 01:14:49;;;;;;;2.58;0.90;;;16.70;90.00;;;;;;5016355;28;20394;-38
2021/05/26 01:17:15;;;;;;;3.75;1.00;;;16.60;65.10;;;;;;5016188;28;20385;-38
2021/05/26 01:19:40;;;;;;;2.20;0.82;;;16.60;65.10;;;;;;5016555;28;20022;-38
2021/05/26 01:22:07;;;;;;;3.35;1.13;;;16.60;65.10;;;;;;5016573;28;20022;-38
2021/05/26 01:24:33;;;;;;;2.78;0.90;;;17.00;65.30;;;;;;5016534;28;20353;-38
2021/05/26 01:26:59;;;;;;;3.40;1.20;;;17.00;66.10;;;;;;5016077;28;20101;-38
2021/05/26 01:29:25;;;;;;;3.60;1.25;;;16.40;65.00;;;;;;5016369;28;20026;-38
2021/05/26 01:31:50;;;;;;;2.78;0.98;;;16.90;65.30;;;;;;5016031;28;20069;-38
2021/05/26 01:34:16;;;;;;;4.95;1.33;;;16.50;65.10;;;;;;5016018;28;20030;-38
2021/05/26 01:36:42;;;;;;;2.45;0.75;;;16.50;65.10;;;;;;5016181;28;20041;-38
2021/05/26 01:39:08;;;;;;;5.03;0.88;;;16.50;65.10;;;;;;5016203;28;20022;-38
2021/05/26 01:41:34;;;;;;;1.42;0.77;;;16.60;65.20;;;;;;5015918;28;20065;-39
2021/05/26 01:44:00;;;;;;;2.13;0.80;;;16.30;65.00;;;;;;5015832;28;20484;-38
2021/05/26 01:46:25;;;;;;;2.22;0.73;;;16.40;65.10;;;;;;5016063;28;20025;-38
2021/05/26 01:48:51;;;;;;;2.92;1.02;;;16.50;65.20;;;;;;5015971;28;20025;-38
2021/05/26 01:51:18;;;;;;;2.95;0.70;;;16.40;65.10;;;;;;5015975;28;20477;-38
2021/05/26 01:53:44;;;;;;;3.08;0.93;;;16.50;65.20;;;;;;5015875;28;20393;-38
2021/05/26 01:56:20;;;;;;;1.48;0.82;;;16.50;65.20;;;;;;5015699;28;20404;-38
2021/05/26 01:58:52;;;;;;;2.42;0.70;;;16.50;65.10;;;;;;5015824;28;20030;-39
2021/05/26 02:01:18;;;;;;;2.75;1.05;;;16.30;65.10;;;;;;5015625;28;20053;-38
2021/05/26 02:03:45;;;;;;;2.92;0.95;;;16.30;65.10;;;;;;5015449;28;20045;-38
2021/05/26 02:06:18;;;;;;;2.40;0.68;;;16.50;65.20;;;;;;5014121;28;20034;-38
2021/05/26 02:08:46;;;;;;;2.33;1.02;;;16.50;65.20;;;;;;5015339;28;20026;-38
2021/05/26 02:14:01;;;;;;;2.03;1.00;;;16.30;65.00;;;;;;5015605;28;20060;-38
2021/05/26 02:16:27;;;;;;;2.25;1.05;;;16.20;65.00;;;;;;5015142;28;20045;-38
2021/05/26 02:18:53;;;;;;;2.65;0.90;;;16.40;65.10;;;;;;5014785;28;20026;-38
2021/05/26 02:21:19;;;;;;;2.25;0.90;;;16.30;65.10;;;;;;5015154;28;20080;-38
2021/05/26 02:23:44;;;;;;;4.50;1.23;;;16.40;65.10;;;;;;5015067;28;20034;-38
2021/05/26 02:26:10;;;;;;;2.20;1.00;;;16.50;65.20;;;;;;5015074;28;20026;-38
2021/05/26 02:28:36;;;;;;;3.25;1.10;;;16.90;65.40;;;;;;5014968;28;20041;-38
2021/05/26 02:31:02;;;;;;;2.88;1.13;;;16.40;65.10;;;;;;5015268;28;20020;-38
2021/05/26 02:33:27;;;;;;;1.85;0.80;;;16.10;65.00;;;;;;5015136;28;20072;-38
2021/05/26 02:35:53;;;;;;;3.72;1.20;;;16.40;65.10;;;;;;5014922;28;20101;-38
2021/05/26 02:38:19;;;;;;;1.98;1.15;;;16.20;65.00;;;;;;5015007;28;20033;-38
2021/05/26 02:40:44;;;;;;;3.08;0.88;;;16.40;65.10;;;;;;5015087;28;20068;-38
2021/05/26 02:43:10;;;;;;;3.03;0.70;;;16.40;65.10;;;;;;5014971;28;20100;-38
2021/05/26 02:45:37;;;;;;;2.15;0.95;;;16.20;65.00;;;;;;5014615;28;20465;-39
2021/05/26 02:48:04;;;;;;;4.07;0.82;;;16.20;65.00;;;;;;5014693;28;20388;-38
2021/05/26 02:50:30;;;;;;;4.50;1.10;;;16.40;65.00;;;;;;5014574;28;20022;-38
2021/05/26 02:52:55;;;;;;;2.88;1.38;;;16.40;65.00;;;;;;5014797;28;20037;-40
2021/05/26 02:55:22;;;;;;;2.40;0.90;;;16.40;89.90;;;;;;5014739;28;20045;-40
2021/05/26 02:57:49;;;;;;;1.85;0.93;;;16.30;65.00;;;;;;5014620;28;20030;-40
2021/05/26 03:00:17;;;;;;;3.00;1.05;;;16.40;65.00;;;;;;5014679;28;20049;-39
2021/05/26 03:02:43;;;;;;;2.53;0.88;;;16.40;65.00;;;;;;5014186;28;20026;-40
2021/05/26 03:05:10;;;;;;;4.15;1.15;;;16.70;65.00;;;;;;5014149;28;20523;-40
2021/05/26 03:07:37;;;;;;;2.55;1.13;;;16.40;64.90;;;;;;5014516;28;20034;-39
2021/05/26 03:10:04;;;;;;;2.65;0.95;;;16.20;64.70;;;;;;5014429;28;20021;-40
2021/05/26 03:12:30;;;;;;;3.13;0.85;;;16.40;64.90;;;;;;5014126;28;20104;-40
2021/05/26 03:14:55;;;;;;;3.00;1.13;;;16.40;64.90;;;;;;5013186;28;20057;-40
2021/05/26 03:17:23;;;;;;;3.22;1.20;;;16.20;64.80;;;;;;5013941;28;20038;-40
2021/05/26 03:19:49;;;;;;;2.85;1.48;;;16.40;64.90;;;;;;5014318;28;20068;-40
2021/05/26 03:22:15;;;;;;;5.22;1.05;;;16.40;89.90;;;;;;5014252;28;20030;-40
2021/05/26 03:24:40;;;;;;;2.75;1.08;;;16.30;64.80;;;;;;5014219;28;20092;-40
2021/05/26 03:27:06;;;;;;;2.47;1.10;;;16.20;89.30;;;;;;5014166;28;20018;-40
2021/05/26 03:29:31;;;;;;;2.78;1.17;;;16.40;64.90;;;;;;5012955;28;20061;-40
2021/05/26 03:31:57;;;;;;;4.53;1.42;;;16.30;64.90;;;;;;5014115;28;20021;-40
2021/05/26 03:34:23;;;;;;;5.35;1.23;;;16.40;64.90;;;;;;5013776;28;20030;-40
2021/05/26 03:36:50;;;;;;;2.88;1.20;;;16.40;64.90;;;;;;5013984;28;20126;-40
2021/05/26 03:39:15;;;;;;;4.75;1.15;;;16.20;64.80;;;;;;5013663;28;20424;-40
2021/05/26 03:41:41;;;;;;;2.78;1.10;;;16.80;65.10;;;;;;5013956;28;20028;-40
2021/05/26 03:44:07;;;;;;;6.10;1.02;;;16.50;64.90;;;;;;5013639;28;20489;-40
2021/05/26 03:46:34;;;;;;;2.22;0.93;;;16.30;64.80;;;;;;5013841;28;20384;-40
2021/05/26 03:48:59;;;;;;;3.15;0.88;;;16.10;64.60;;;;;;5013558;28;20033;-40
2021/05/26 03:51:25;;;;;;;2.28;0.70;;;16.30;64.70;;;;;;5013481;28;20174;-40
2021/05/26 03:53:51;;;;;;;2.55;0.93;;;16.30;64.70;;;;;;5013748;28;20064;-40
2021/05/26 03:56:16;;;;;;;3.15;0.80;;;16.40;64.80;;;;;;5013463;28;20037;-40
2021/05/26 03:58:42;;;;;;;2.55;1.23;;;16.10;64.60;;;;;;5013368;28;20164;-40
2021/05/26 04:01:08;;;;;;;5.97;1.15;;;16.30;64.70;;;;;;5013584;28;20546;-40
2021/05/26 04:03:33;;;;;;;1.92;0.70;;;16.30;64.80;;;;;;5013145;28;20046;-39
2021/05/26 04:05:59;;;;;;;2.28;0.98;;;16.30;64.70;;;;;;5013276;28;20058;-40
2021/05/26 04:08:24;;;;;;;2.97;0.80;;;16.30;64.70;;;;;;5013563;28;20022;-40
2021/05/26 04:10:50;;;;;;;2.67;0.75;;;16.30;64.70;;;;;;5013168;28;20034;-40
2021/05/26 04:13:15;;;;;;;2.22;1.02;;;16.30;64.70;;;;;;5011883;28;20029;-40
2021/05/26 04:15:41;;;;;;;3.22;0.70;;;16.70;64.90;;;;;;5013373;28;20363;-39
2021/05/26 04:18:07;;;;;;;1.38;0.93;;;16.20;64.60;;;;;;5012971;28;20038;-40
2021/05/26 04:20:34;;;;;;;1.27;0.70;;;16.20;64.60;;;;;;5013108;28;20029;-40
2021/05/26 04:23:00;;;;;;;4.05;0.82;;;16.30;65.40;;;;;;5013065;28;20026;-40
2021/05/26 04:25:26;;;;;;;2.35;0.95;;;16.30;64.70;;;;;;5013291;28;20424;-40
2021/05/26 04:27:52;;;;;;;1.90;0.95;;;16.30;64.70;;;;;;5013336;28;20029;-40
2021/05/26 04:30:18;;;;;;;2.88;1.15;;;16.40;64.70;;;;;;5013249;28;20024;-40
2021/05/26 04:32:44;;;;;;;6.05;1.40;;;16.30;64.60;;;;;;5013252;28;20076;-40
2021/05/26 04:35:10;;;;;;;1.88;0.68;;;16.30;64.60;;;;;;5013205;28;20457;-40
2021/05/26 04:37:36;;;;;;;1.23;0.70;;;16.30;64.60;;;;;;5012788;28;20038;-40
2021/05/26 04:40:03;;;;;;;1.92;1.05;;;16.00;64.40;;;;;;5013034;28;20369;-41
2021/05/26 04:42:29;;;;;;;1.67;0.80;;;16.30;64.70;;;;;;5018704;28;20065;-40
2021/05/26 04:44:54;;;;;;;2.85;0.98;;;16.30;64.70;;;;;;5019378;28;20436;-40
2021/05/26 04:47:20;;;;;;;1.13;0.70;;;16.20;64.50;;;;;;5019325;28;20081;-40
2021/05/26 04:49:46;;;;;;;3.85;1.30;;;16.30;64.60;;;;;;5019315;28;20097;-40
2021/05/26 04:52:11;;;;;;;1.70;0.70;;;16.10;64.50;;;;;;5019549;28;20022;-39
2021/05/26 04:54:37;;;;;;;3.95;1.05;;;16.70;64.80;;;;;;5019284;28;20033;-40
2021/05/26 04:57:03;;;;;;;3.45;0.90;;;16.20;64.50;;;;;;5019139;28;20101;-40
2021/05/26 04:59:28;;;;;;;1.70;0.98;;;16.20;64.50;;;;;;5019429;28;20109;-40
2021/05/26 05:01:54;;;;;;;1.85;1.00;;;16.10;64.50;;;;;;5019422;28;20025;-39
2021/05/26 05:04:20;;;;;;;2.13;0.70;;;16.10;64.50;;;;;;5018970;28;20533;-39
2021/05/26 05:06:46;;;;;;;2.30;0.80;;;16.20;64.50;;;;;;5017922;28;20022;-40
2021/05/26 05:09:11;;;;;;;1.98;0.70;;;16.20;64.50;;;;;;5019191;28;20025;-39
2021/05/26 05:11:38;;;;;;;2.15;0.98;;;16.20;64.50;;;;;;5019395;28;20026;-40
2021/05/26 05:14:04;;;;;;;2.90;1.27;;;16.20;64.50;;;;;;5019087;28;20472;-40
2021/05/26 05:16:30;;;;;;;1.52;0.90;;;16.20;64.50;;;;;;5018939;28;20065;-40
2021/05/26 05:18:55;;;;;;;2.28;1.00;;;16.00;64.40;;;;;;5017804;28;20129;-40
2021/05/26 05:21:21;;;;;;;1.45;0.80;;;16.20;64.50;;;;;;5019033;28;20048;-40
2021/05/26 05:23:47;;;;;;;2.08;0.90;;;16.20;64.40;;;;;;5019017;28;20033;-40
2021/05/26 05:26:13;;;;;;;2.30;0.95;;;16.20;64.50;;;;;;5017790;28;20076;-39
2021/05/26 05:28:38;;;;;;;2.20;1.05;;;16.20;64.50;;;;;;5019198;28;20029;-40
2021/05/26 05:31:04;;;;;;;3.03;1.17;;;16.10;64.40;;;;;;5019143;28;20018;-39
2021/05/26 05:33:29;;;;;;;2.25;0.90;;;16.20;64.40;;;;;;5018905;28;20025;-39
2021/05/26 05:35:55;;;;;;;2.22;0.90;;;16.20;64.40;;;;;;5018930;28;20018;-40
2021/05/26 05:38:21;;;;;;;2.83;1.00;;;16.90;64.80;;;;;;5019039;28;20526;-40
2021/05/26 05:40:47;;;;;;;1.55;0.85;;;16.20;64.50;;;;;;5019135;28;20022;-39
2021/05/26 05:43:14;;;;;;;2.13;1.20;;;16.20;64.40;;;;;;5017689;28;20025;-40
2021/05/26 05:45:40;;;;;;;0.63;0.63;;;16.00;64.30;;;;;;5018803;28;20030;-40
2021/05/26 05:48:06;;;;;;;1.45;1.00;;;16.20;64.40;;;;;;5018742;28;20041;-39
2021/05/26 05:50:31;;;;;;;2.20;1.05;;;16.20;64.40;;;;;;5018782;28;20025;-39
2021/05/26 05:52:57;;;;;;;1.70;0.95;;;16.10;64.30;;;;;;5016475;28;20026;-39
2021/05/26 05:55:23;;;;;;;2.35;1.10;;;16.20;64.20;;;;;;5015828;28;20037;-39
2021/05/26 05:57:48;;;;;;;1.33;0.80;;;16.20;64.20;;;;;;5015694;28;20058;-39
2021/05/26 06:00:14;;;;;;;2.85;1.20;;;16.00;64.20;;;;;;5014130;28;20053;-39
2021/05/26 06:02:41;;;;;;;3.30;1.38;;;16.30;64.30;;;;;;5014194;28;20022;-39
2021/05/26 06:05:07;;;;;;;3.15;1.00;;;16.30;89.50;;;;;;5015207;28;20049;-40
2021/05/26 06:07:33;;;;;;;4.50;1.40;;;16.30;64.40;;;;;;5015621;28;20091;-40
2021/05/26 06:09:59;;;;;;;2.15;0.80;;;16.30;65.20;;;;;;5015565;28;20461;-39
2021/05/26 06:12:24;;;;;;;2.08;1.33;;;16.30;64.80;;;;;;5015549;28;20030;-39
2021/05/26 06:14:50;;;;;;;2.97;1.20;;;16.30;64.80;;;;;;5015563;28;20144;-39
2021/05/26 06:17:16;;;;;;;3.03;0.90;;;16.40;64.90;;;;;;5014706;28;20022;-40
2021/05/26 06:19:41;;;;;;;3.92;1.10;;;16.40;64.90;;;;;;5013957;28;20037;-39
2021/05/26 06:22:07;;;;;;;5.15;1.05;;;16.40;64.90;;;;;;5015068;28;20033;-39
2021/05/26 06:24:33;;;;;;;3.72;0.85;;;16.40;65.00;;;;;;5013623;28;20041;-39
2021/05/26 06:26:59;;;;;;;2.47;0.75;;;16.40;65.00;;;;;;5014892;28;20377;-39
2021/05/26 06:29:24;;;;;;;1.70;0.98;;;16.20;65.00;;;;;;5014733;28;20469;-39
2021/05/26 06:31:50;;;;;;;2.70;0.70;;;16.10;65.00;;;;;;5014551;28;20022;-38
2021/05/26 06:34:16;;;;;;;2.25;1.10;;;16.30;65.10;;;;;;5014589;28;20028;-38
2021/05/26 06:36:42;;;;;;;4.65;1.35;;;16.40;65.20;;;;;;5014425;28;20026;-38
2021/05/26 06:39:08;;;;;;;4.13;1.92;;;16.40;65.10;;;;;;5014725;28;20068;-39
2021/05/26 06:41:33;;;;;;;6.43;1.40;;;16.90;65.50;;;;;;5014340;28;20026;-39
2021/05/26 06:43:59;;;;;;;2.38;1.23;;;16.40;65.50;;;;;;5014362;28;20057;-39
2021/05/26 06:46:24;;;;;;;2.50;1.10;;;16.50;65.30;;;;;;5014275;28;20109;-39
2021/05/26 06:48:50;;;;;;;4.68;0.88;;;16.50;65.20;;;;;;5014275;28;20457;-39
2021/05/26 06:51:16;;;;;;;2.13;0.85;;;16.50;65.60;;;;;;5014261;28;20034;-42
2021/05/26 06:53:41;;;;;;;7.97;1.10;;;16.40;65.50;;;;;;5014590;28;20022;-39
2021/05/26 06:56:07;;;;;;;1.58;1.10;;;16.50;65.50;;;;;;5014206;28;20026;-39
2021/05/26 06:58:33;;;;;;;4.15;1.40;;;16.60;65.60;;;;;;5014360;28;20480;-39
2021/05/26 07:00:59;;;;;;;1.98;1.00;;;17.50;66.30;;;;;;5019521;23;20058;-39
2021/05/26 07:03:24;;;;;;;4.07;1.42;;;16.50;65.70;;;;;;5002496;28;20383;-39
2021/05/26 07:05:50;;;;;;;2.90;1.30;;;16.50;65.60;;;;;;4988760;28;20472;-39
2021/05/26 07:08:16;;;;;;;3.47;1.13;;;16.40;65.60;;;;;;5005757;28;20061;-39
2021/05/26 07:10:41;;;;;;;2.67;1.08;;;16.50;65.60;;;;;;5004136;28;20022;-39
2021/05/26 07:13:07;;;;;;;2.92;0.95;;;16.50;65.60;;;;;;4999837;28;20053;-39
2021/05/26 07:15:33;;;;;;;3.55;1.08;;;16.30;65.50;;;;;;5003108;28;20048;-38
2021/05/26 07:18:07;;;;;;;4.07;1.30;;;16.50;65.50;;;;;;5009114;28;20034;-38
2021/05/26 07:20:33;;;;;;;6.95;2.72;;;16.50;65.50;;;;;;5001007;28;20124;-40
2021/05/26 07:22:59;;;;;;;17.33;5.55;;;16.60;66.30;;;;;;5002614;28;20034;-38
2021/05/26 07:25:25;;;;;;;13.75;4.70;;;16.60;68.20;;;;;;5000235;28;20122;-38
2021/05/26 07:27:51;;;;;;;15.85;5.00;;;16.60;68.30;;;;;;5004128;28;20059;-38
2021/05/26 07:30:18;;;;;;;9.27;4.03;;;16.70;68.10;;;;;;4999246;28;20693;-38
2021/05/26 07:32:44;;;;;;;11.70;4.07;;;16.40;67.50;;;;;;5004592;28;20046;-38
2021/05/26 07:35:11;;;;;;;8.23;3.42;;;16.70;68.20;;;;;;4982380;28;20037;-39
2021/05/26 07:37:38;;;;;;;7.53;4.00;;;16.80;68.30;;;;;;5001927;28;20034;-39
2021/05/26 07:40:05;;;;;;;14.73;4.15;;;17.40;68.60;;;;;;4990893;28;20079;-40
2021/05/26 07:42:31;;;;;;;8.10;3.67;;;16.80;68.20;;;;;;4991558;28;20416;-38
2021/05/26 07:44:56;;;;;;;6.72;3.40;;;16.80;68.80;;;;;;5003641;28;20024;-38
2021/05/26 07:47:22;;;;;;;8.77;3.47;;;16.80;69.10;;;;;;5003088;28;20018;-38
2021/05/26 07:49:47;;;;;;;7.00;3.45;;;16.80;69.20;;;;;;4984184;28;20059;-38
2021/05/26 07:52:19;;;;;;;9.60;3.70;;;17.00;69.60;;;;;;5002468;28;20022;-39
2021/05/26 07:54:44;;;;;;;8.10;3.58;;;16.80;69.40;;;;;;5002850;28;20476;-38
2021/05/26 07:57:10;;;;;;;6.32;3.55;;;16.60;69.50;;;;;;5004273;28;20034;-38
2021/05/26 07:59:35;;;;;;;6.90;3.55;;;16.90;70.00;;;;;;5003884;28;21310;-38
2021/05/26 08:02:01;;;;;;;7.03;3.30;;;16.90;70.00;;;;;;5009083;28;20037;-38
2021/05/26 08:04:27;;;;;;;6.88;3.17;;;16.90;70.10;;;;;;5007198;28;20076;-38
2021/05/26 08:06:52;;;;;;;8.75;3.45;;;17.00;70.10;;;;;;5009551;28;20495;-38
2021/05/26 08:09:18;;;;;;;11.85;3.53;;;16.70;69.80;;;;;;5008424;28;20026;-38
2021/05/26 08:11:44;;;;;;;6.93;2.75;;;16.80;69.70;;;;;;5007712;28;20036;-38
2021/05/26 08:14:10;;;;;;;6.30;3.17;;;17.00;69.40;;;;;;5007897;28;20404;-38
2021/05/26 08:16:35;;;;;;;4.70;2.97;;;17.10;69.10;;;;;;5008491;28;20029;-38
2021/05/26 08:19:01;;;;;;;5.10;2.72;;;17.10;68.70;;;;;;5008215;28;20096;-38
2021/05/26 08:21:27;;;;;;;6.80;2.85;;;17.10;68.40;;;;;;5008536;28;20100;-38
2021/05/26 08:23:52;;;;;;;8.00;2.67;;;17.10;68.10;;;;;;5009333;28;20026;-38
2021/05/26 08:26:21;;;;;;;4.75;2.63;;;17.10;67.80;;;;;;5008791;28;20010;-37
2021/05/26 08:28:54;;;;;;;4.80;2.63;;;17.10;67.50;;;;;;5008565;28;20024;-37
2021/05/26 08:31:21;;;;;;;4.63;2.50;;;17.20;67.30;;;;;;5008909;28;20111;-38
2021/05/26 08:33:47;;;;;;;7.97;2.75;;;17.20;67.00;;;;;;5007982;28;20087;-38
2021/05/26 08:36:13;;;;;;;7.35;2.55;;;17.20;66.60;;;;;;5007362;28;20109;-38
2021/05/26 08:38:39;;;;;;;4.32;2.33;;;17.20;66.40;;;;;;5007595;28;20816;-38
2021/05/26 08:41:09;;;;;;;3.63;2.25;;;17.20;66.30;;;;;;5006208;28;20113;-38
2021/05/26 08:43:37;;;;;;;;;;;17.10;65.90;;;;;;5009941;28;20026;-38
2021/05/26 08:46:03;;;;;;;4.82;2.05;;;17.30;65.70;;;;;;5008656;28;19920;-38
2021/05/26 08:48:30;;;;;;;8.18;2.20;;;17.30;65.60;;;;;;5008883;28;20029;-38
2021/05/26 08:50:57;;;;;;;4.53;2.33;;;17.40;65.60;;;;;;5009243;28;20029;-38
2021/05/26 08:53:23;;;;;;;2.83;1.75;;;17.20;65.30;;;;;;5009147;28;20067;-38
2021/05/26 08:55:49;;;;;;;3.92;2.10;;;17.40;65.10;;;;;;5007913;28;20030;-39
2021/05/26 08:58:15;;;;;;;4.90;2.00;;;17.20;65.10;;;;;;5006732;28;20458;-38
2021/05/26 09:00:40;;;;;;;3.83;1.73;;;17.40;65.10;;;;;;5008903;28;20034;-39
2021/05/26 09:03:06;;;;;;;2.15;1.63;;;17.40;65.00;;;;;;5008496;28;20030;-38
2021/05/26 09:05:33;;;;;;;3.95;1.77;;;17.50;64.90;;;;;;5007984;28;20058;-40
2021/05/26 09:08:15;;;;;;;4.55;1.63;;;17.50;64.60;;;;;;5008879;28;20048;-38
2021/05/26 09:10:57;;;;;;;2.15;1.50;;;18.10;64.80;;;;;;5005956;28;20025;-38
2021/05/26 09:13:42;;;;;;;2.45;1.63;;;17.60;64.50;;;;;;5011330;28;20049;-38
2021/05/26 09:16:25;;;;;;;2.92;1.65;;;17.50;64.20;;;;;;5007821;28;20026;-37
2021/05/26 09:18:55;;;;;;;3.38;1.85;;;17.00;63.80;;;;;;5009521;28;20107;-38
2021/05/26 09:21:46;;;;;;;6.13;2.10;;;17.60;64.20;;;;;;5009792;28;20390;-39
2021/05/26 09:24:21;;;;;;;8.05;2.00;;;17.50;64.00;;;;;;5006413;28;20022;-38
2021/05/26 09:26:51;;;;;;;2.58;1.50;;;17.50;64.10;;;;;;5008204;28;20408;-38
2021/05/26 09:29:24;;;;;;;;;;;17.50;64.10;;;;;;5007450;28;20034;-38
2021/05/26 09:31:49;;;;;;;1.65;1.20;;;17.40;64.00;;;;;;5012839;28;19964;-39
2021/05/26 09:34:35;;;;;;;3.28;1.60;;;17.40;64.20;;;;;;5013997;28;20041;-38
2021/05/26 09:37:01;;;;;;;4.07;1.38;;;17.50;64.10;;;;;;5012708;28;20422;-38
2021/05/26 09:39:51;;;;;;;3.42;1.40;;;17.50;64.10;;;;;;5013388;28;20022;-38
2021/05/26 09:42:24;;;;;;;;;;;17.80;64.40;;;;;;5011444;28;20049;-38
2021/05/26 09:45:20;;;;;;;1.02;0.93;;;17.60;64.70;;;;;;5012151;28;20436;-38
2021/05/26 09:50:28;;;;;;;4.18;1.35;;;17.70;64.00;;;;;;5143061;23;20049;-39
2021/05/26 09:53:15;;;;;;;2.53;1.17;;;18.30;64.60;;;;;;5055717;28;20021;-38
2021/05/26 09:55:48;;;;;;;4.60;1.83;;;17.70;64.70;;;;;;5055609;28;20120;-39
2021/05/26 09:58:18;;;;;;;5.80;1.70;;;17.70;64.90;;;;;;5055316;28;20033;-38
2021/05/26 10:00:45;;;;;;;;;;;18.10;66.10;;;;;;5056170;28;20038;-38
2021/05/26 10:03:11;;;;;;;6.45;1.42;;;17.60;66.30;;;;;;5055661;28;19927;-38
2021/05/26 10:05:37;;;;;;;3.58;1.40;;;17.70;65.90;;;;;;5055262;28;20080;-38
2021/05/26 10:08:12;;;;;;;2.28;1.10;;;17.70;65.80;;;;;;5055575;28;20076;-38
2021/05/26 10:10:39;;;;;;;4.07;1.55;;;17.70;65.50;;;;;;5055538;28;20017;-39
2021/05/26 10:13:06;;;;;;;4.88;0.98;;;17.60;65.10;;;;;;5055499;28;20037;-39
2021/05/26 10:15:33;;;;;;;4.13;1.50;;;17.60;64.90;;;;;;5055190;28;20028;-40
2021/05/26 10:18:01;;;;;;;2.85;1.45;;;17.90;65.00;;;;;;5055196;28;20025;-39
2021/05/26 10:20:30;;;;;;;8.77;1.55;;;17.80;64.80;;;;;;5055303;28;20017;-40
2021/05/26 10:22:58;;;;;;;1.95;1.20;;;17.80;64.60;;;;;;5054900;28;20021;-39
2021/05/26 10:25:24;;;;;;;4.22;1.13;;;18.50;64.90;;;;;;5055142;28;20025;-40
2021/05/26 10:27:55;;;;;;;6.63;1.58;;;17.80;64.30;;;;;;5053571;28;20108;-40
2021/05/26 10:30:26;;;;;;;5.80;1.35;;;17.70;64.10;;;;;;5054653;28;20029;-39
2021/05/26 10:32:59;;;;;;;3.63;1.63;;;17.80;64.00;;;;;;5054738;28;20032;-40
2021/05/26 10:35:32;;;;;;;2.80;1.13;;;17.80;63.90;;;;;;5054793;28;20079;-39
2021/05/26 10:38:03;;;;;;;3.15;1.35;;;17.80;63.80;;;;;;5054599;28;20067;-40
2021/05/26 10:40:35;;;;;;;4.07;1.45;;;17.90;63.70;;;;;;5054003;28;20025;-40
2021/05/26 10:43:13;;;;;;;2.40;1.02;;;17.90;63.50;;;;;;5054475;28;20037;-40
2021/05/26 10:45:39;;;;;;;2.42;1.27;;;18.00;63.20;;;;;;5053207;28;20029;-40
2021/05/26 10:48:05;;;;;;;3.05;1.25;;;18.10;86.90;;;;;;5054584;28;20418;-40
2021/05/26 10:50:55;;;;;;;4.00;1.52;;;18.00;62.80;;;;;;5054134;28;20057;-40
2021/05/26 10:53:22;;;;;;;4.38;1.27;;;17.80;62.50;;;;;;5054659;28;20033;-40
2021/05/26 10:55:53;;;;;;;2.75;1.05;;;17.90;62.30;;;;;;5054318;28;20025;-40
2021/05/26 10:58:23;;;;;;;1.65;0.88;;;18.10;62.20;;;;;;5054188;28;20036;-40
2021/05/26 11:01:09;;;;;;;1.30;0.73;;;18.10;62.10;;;;;;5054447;28;20431;-40
2021/05/26 11:03:42;;;;;;;2.95;0.90;;;17.90;62.70;;;;;;5054173;28;20383;-40
2021/05/26 11:06:13;;;;;;;2.20;1.00;;;18.10;62.10;;;;;;5054413;28;20160;-40
2021/05/26 11:11:25;;;;;;;1.67;0.80;;;18.10;61.90;;;;;;5054325;28;20079;-39
2021/05/26 11:14:23;;;;;;;3.83;0.88;;;18.10;61.90;;;;;;5054217;28;20025;-40
2021/05/26 11:16:50;;;;;;;2.17;1.08;;;18.20;61.80;;;;;;5053836;28;20041;-39
2021/05/26 11:19:24;;;;;;;2.92;1.17;;;18.20;61.60;;;;;;5054082;28;20035;-40
2021/05/26 11:22:04;;;;;;;1.88;0.93;;;18.20;61.40;;;;;;5052450;28;20039;-40
2021/05/26 11:24:33;;;;;;;2.63;0.98;;;18.20;61.40;;;;;;5053739;28;20025;-40
2021/05/26 11:26:59;;;;;;;1.58;1.00;;;17.90;61.40;;;;;;5053557;28;20375;-40
2021/05/26 11:29:29;;;;;;;1.35;0.85;;;18.10;61.50;;;;;;5053723;28;20021;-39
2021/05/26 11:32:05;;;;;;;2.08;1.00;;;18.10;61.50;;;;;;5053751;28;20484;-40
2021/05/26 11:34:31;;;;;;;3.92;0.98;;;18.20;61.50;;;;;;5053778;28;20025;-40
2021/05/26 11:36:57;;;;;;;2.75;0.70;;;17.70;61.70;;;;;;5053660;28;20345;-40
2021/05/26 11:39:32;;;;;;;1.50;0.75;;;18.20;61.10;;;;;;5053632;28;20033;-39
2021/05/26 11:42:07;;;;;;;1.10;0.75;;;18.60;61.20;;;;;;5053748;28;20068;-40
2021/05/26 11:44:41;;;;;;;2.83;0.85;;;18.30;61.00;;;;;;5053589;28;20410;-39
2021/05/26 11:47:07;;;;;;;1.80;0.80;;;18.20;60.90;;;;;;5053312;28;20033;-40
2021/05/26 11:49:36;;;;;;;3.63;1.10;;;18.20;60.90;;;;;;5052989;28;20490;-39
2021/05/26 11:52:05;;;;;;;6.30;0.95;;;18.10;60.70;;;;;;5052411;28;20433;-40
2021/05/26 11:54:31;;;;;;;1.67;0.70;;;18.30;60.70;;;;;;5053406;28;20021;-40
2021/05/26 11:57:04;;;;;;;1.60;0.70;;;18.30;60.60;;;;;;5053227;28;20029;-39
2021/05/26 11:59:30;;;;;;;1.48;0.70;;;18.30;60.50;;;;;;5053382;28;20100;-40
2021/05/26 12:01:57;;;;;;;2.38;0.90;;;18.30;60.20;;;;;;5053301;28;20021;-40
2021/05/26 12:04:24;;;;;;;1.65;0.70;;;18.10;60.10;;;;;;5053252;28;20071;-40
2021/05/26 12:06:50;;;;;;;1.25;0.68;;;18.30;60.10;;;;;;5053294;28;20017;-40
2021/05/26 12:09:29;;;;;;;1.90;0.40;;;18.30;60.10;;;;;;5053463;28;20017;-40
2021/05/26 12:11:55;;;;;;;1.45;0.73;;;18.30;59.90;;;;;;5053091;28;20071;-40
2021/05/26 12:14:28;;;;;;;0.60;0.45;;;18.30;59.90;;;;;;5053005;28;20035;-40
2021/05/26 12:16:55;;;;;;;1.80;0.80;;;18.30;59.80;;;;;;5052689;28;20029;-40
2021/05/26 12:19:31;;;;;;;1.90;0.70;;;18.80;60.00;;;;;;5052673;28;20415;-42
2021/05/26 12:22:17;;;;;;;2.80;0.50;;;18.40;83.80;;;;;;5053092;28;20028;-40
2021/05/26 12:24:53;;;;;;;1.65;0.50;;;18.30;59.60;;;;;;5053048;28;20112;-40
2021/05/26 12:27:32;;;;;;;1.25;0.60;;;18.30;59.50;;;;;;5052722;28;20019;-40
2021/05/26 12:30:19;;;;;;;1.48;0.50;;;18.30;59.40;;;;;;5052916;28;20025;-40
2021/05/26 12:32:49;;;;;;;1.15;0.70;;;18.30;59.40;;;;;;5042571;28;20039;-40
2021/05/26 12:35:19;;;;;;;;;;;18.10;59.40;;;;;;5053166;28;20063;-40
2021/05/26 12:37:51;;;;;;;2.30;0.70;;;18.30;59.60;;;;;;5052712;28;19913;-39
2021/05/26 12:40:25;;;;;;;2.45;0.75;;;18.20;59.70;;;;;;5052344;28;20040;-40
2021/05/26 12:42:52;;;;;;;4.05;0.68;;;18.20;59.80;;;;;;5052566;28;20067;-40
2021/05/26 12:45:30;;;;;;;2.70;0.73;;;18.20;59.90;;;;;;5052547;28;20371;-40
2021/05/26 12:48:11;;;;;;;1.50;0.40;;;18.10;84.20;;;;;;5052425;28;20103;-40
2021/05/26 12:50:40;;;;;;;1.38;0.70;;;18.20;59.90;;;;;;5052283;28;20618;-40
2021/05/26 12:53:15;;;;;;;1.48;0.60;;;18.10;59.90;;;;;;5052439;28;20028;-40
2021/05/26 12:55:41;;;;;;;3.70;0.70;;;18.20;59.90;;;;;;5052471;28;20151;-40
2021/05/26 12:58:10;;;;;;;1.48;0.50;;;18.10;59.90;;;;;;5052514;28;20043;-40
2021/05/26 13:00:38;;;;;;;0.93;0.50;;;18.20;59.80;;;;;;5052839;28;20021;-40